Time;durP1;ratioP1;P1;durP2;ratioP2;P2;SDS_P1;SDS_P2;PMS_P1;PMS_P2;Temp;Humidity;BMP_temperature;BMP_pressure;BME280_temperature;BME280_humidity;BME280_pressure;Samples;Min_cycle;Max_cycle;Signal;HPM_P1;HPM_P2
2023/05/16 00:00:40;;;;;;;2.45;2.25;;;;;;;-142.57;100.00;115900.28;5037886;28;20116;-82
2023/05/16 00:03:10;;;;;;;3.10;2.67;;;;;;;-142.57;100.00;115900.28;5039704;28;20071;-82
2023/05/16 00:05:36;;;;;;;6.30;2.63;;;;;;;-142.57;100.00;115900.28;5036966;28;20137;-83
2023/05/16 00:08:02;;;;;;;7.15;2.28;;;;;;;-142.57;100.00;115900.28;5041053;28;20037;-82
2023/05/16 00:10:27;;;;;;;3.42;2.25;;;;;;;-142.57;100.00;115900.28;5043407;28;20065;-83
2023/05/16 00:13:00;;;;;;;6.78;2.20;;;;;;;-142.57;100.00;115900.28;5043052;28;20033;-84
2023/05/16 00:15:28;;;;;;;2.97;2.25;;;;;;;-142.57;100.00;115900.28;5043198;28;20046;-82
2023/05/16 00:17:57;;;;;;;4.38;2.45;;;;;;;-142.57;100.00;115900.28;5042443;28;20048;-82
2023/05/16 00:20:24;;;;;;;2.70;2.15;;;;;;;-142.57;100.00;115900.28;5042838;28;20034;-82
2023/05/16 00:22:50;;;;;;;3.90;2.30;;;;;;;-142.57;100.00;115900.28;5042485;28;20037;-81
2023/05/16 00:25:15;;;;;;;4.10;2.28;;;;;;;-142.57;100.00;115900.28;5040160;28;20036;-81
2023/05/16 00:27:41;;;;;;;2.95;2.15;;;;;;;-142.57;100.00;115900.28;5040960;28;20478;-87
2023/05/16 00:30:08;;;;;;;3.03;2.22;;;;;;;-142.57;100.00;115900.28;5041204;28;20103;-80
2023/05/16 00:32:35;;;;;;;7.07;2.50;;;;;;;-142.57;100.00;115900.28;5041120;28;20061;-83
2023/05/16 00:35:01;;;;;;;5.95;2.40;;;;;;;-142.57;100.00;115900.28;5040722;28;20049;-81
2023/05/16 00:37:26;;;;;;;6.18;2.38;;;;;;;-142.57;100.00;115900.28;5040943;28;20079;-82
2023/05/16 00:39:52;;;;;;;4.13;2.70;;;;;;;-142.57;100.00;115900.28;5041318;28;20067;-81
2023/05/16 00:42:20;;;;;;;4.00;2.42;;;;;;;-142.57;100.00;115900.28;5041008;28;20030;-83
2023/05/16 00:44:48;;;;;;;3.97;2.53;;;;;;;-142.57;100.00;115900.28;5040319;28;20037;-81
2023/05/16 00:47:14;;;;;;;3.03;2.28;;;;;;;-142.57;100.00;115900.28;5040677;28;20078;-84
2023/05/16 00:49:40;;;;;;;6.05;2.38;;;;;;;-142.57;100.00;115900.28;5042103;28;20060;-81
2023/05/16 00:52:06;;;;;;;5.80;2.80;;;;;;;-142.57;100.00;115900.28;5041979;28;20475;-81
2023/05/16 00:54:32;;;;;;;4.85;2.83;;;;;;;-142.57;100.00;115900.28;5042732;28;20032;-82
2023/05/16 00:56:58;;;;;;;3.30;2.80;;;;;;;-142.57;100.00;115900.28;5047097;28;20029;-88
2023/05/16 00:59:24;;;;;;;3.55;2.80;;;;;;;-142.57;100.00;115900.28;5041906;28;20099;-84
2023/05/16 01:01:51;;;;;;;5.65;3.20;;;;;;;-142.57;100.00;115900.28;5044312;28;20106;-82
2023/05/16 01:04:18;;;;;;;3.67;3.00;;;;;;;-142.57;100.00;115900.28;5042279;28;20033;-85
2023/05/16 01:06:44;;;;;;;8.30;3.10;;;;;;;-142.57;100.00;115900.28;5048912;28;20065;-82
2023/05/16 01:09:11;;;;;;;3.45;2.70;;;;;;;-142.57;100.00;115900.28;5036438;28;20033;-81
2023/05/16 01:11:55;;;;;;;10.48;3.42;;;;;;;-142.57;100.00;115900.28;5053549;28;20059;-80
2023/05/16 01:14:39;;;;;;;7.93;3.58;;;;;;;-142.57;100.00;115900.28;5042488;28;20041;-81
2023/05/16 01:17:23;;;;;;;3.55;3.25;;;;;;;-142.57;100.00;115900.28;5047619;28;20037;-81
2023/05/16 01:20:14;;;;;;;5.97;3.72;;;;;;;-142.57;100.00;115900.28;5042186;28;20037;-81
2023/05/16 01:22:50;;;;;;;7.30;4.13;;;;;;;-142.57;100.00;115900.28;5042747;28;20097;-84
2023/05/16 01:25:18;;;;;;;6.70;3.90;;;;;;;-142.57;100.00;115900.28;5042326;28;20037;-81
2023/05/16 01:27:45;;;;;;;6.15;4.13;;;;;;;-142.57;100.00;115900.28;5038563;28;20050;-80
2023/05/16 01:30:20;;;;;;;9.10;4.13;;;;;;;-142.57;100.00;115900.28;5038130;28;20108;-82
2023/05/16 01:32:45;;;;;;;4.57;3.67;;;;;;;-142.57;100.00;115900.28;5037447;28;20110;-82
2023/05/16 01:35:13;;;;;;;6.05;4.45;;;;;;;-142.57;100.00;115900.28;5038265;28;20534;-83
2023/05/16 01:37:45;;;;;;;5.85;3.50;;;;;;;-142.57;100.00;115900.28;5039144;28;20160;-83
2023/05/16 01:40:22;;;;;;;;;;;;;;;-142.57;100.00;115900.28;5038854;28;20037;-81
2023/05/16 01:42:51;;;;;;;5.93;3.80;;;;;;;-142.57;100.00;115900.28;5039025;28;19917;-82
2023/05/16 01:45:38;;;;;;;6.30;3.45;;;;;;;-142.57;100.00;115900.28;5037334;28;20084;-80
2023/05/16 01:48:11;;;;;;;5.63;4.20;;;;;;;-142.57;100.00;115900.28;5036879;28;20143;-81
2023/05/16 01:50:43;;;;;;;7.22;3.75;;;;;;;-142.57;100.00;115900.28;5036966;28;20532;-80
2023/05/16 01:53:16;;;;;;;5.18;4.00;;;;;;;-142.57;100.00;115900.28;5037926;28;20060;-82
2023/05/16 01:55:46;;;;;;;10.25;3.88;;;;;;;-142.57;100.00;115900.28;5025504;28;20045;-79
2023/05/16 01:58:14;;;;;;;9.52;4.00;;;;;;;-142.57;100.00;115900.28;5027665;28;20064;-80
2023/05/16 02:00:40;;;;;;;5.03;4.50;;;;;;;-142.57;100.00;115900.28;5042132;28;20091;-80
2023/05/16 02:03:06;;;;;;;8.38;4.57;;;;;;;-142.57;100.00;115900.28;5039988;28;20038;-81
2023/05/16 02:05:32;;;;;;;6.15;4.95;;;;;;;-142.57;100.00;115900.28;5036953;28;20410;-80
2023/05/16 02:07:58;;;;;;;5.18;4.22;;;;;;;-142.57;100.00;115900.28;5036135;28;20046;-82
2023/05/16 02:10:24;;;;;;;7.78;5.10;;;;;;;-142.57;100.00;115900.28;5038479;28;20094;-82
2023/05/16 02:12:50;;;;;;;6.82;5.10;;;;;;;-142.57;100.00;115900.28;5037002;28;20057;-80
2023/05/16 02:15:16;;;;;;;6.75;5.47;;;;;;;-142.57;100.00;115900.28;5036229;28;20474;-85
2023/05/16 02:17:42;;;;;;;8.13;5.07;;;;;;;-142.57;100.00;115900.28;5036218;28;20034;-81
2023/05/16 02:20:09;;;;;;;6.68;5.00;;;;;;;-142.57;100.00;115900.28;5047382;28;20028;-81
2023/05/16 02:22:35;;;;;;;5.43;4.85;;;;;;;-142.57;100.00;115900.28;5036343;28;20040;-81
2023/05/16 02:25:02;;;;;;;5.95;5.22;;;;;;;-142.57;100.00;115900.28;5038349;28;20051;-81
2023/05/16 02:27:28;;;;;;;12.18;5.80;;;;;;;-142.57;100.00;115900.28;5036509;28;20101;-84
2023/05/16 02:29:54;;;;;;;9.07;5.15;;;;;;;-142.57;100.00;115900.28;5037602;28;20045;-83
2023/05/16 02:32:20;;;;;;;10.57;5.20;;;;;;;-142.57;100.00;115900.28;5039281;28;20089;-82
2023/05/16 02:34:45;;;;;;;6.80;5.63;;;;;;;-142.57;100.00;115900.28;5041360;28;20022;-80
2023/05/16 02:37:15;;;;;;;7.63;5.20;;;;;;;-142.57;100.00;115900.28;5040304;28;20088;-80
2023/05/16 02:39:41;;;;;;;8.35;6.55;;;;;;;-142.57;100.00;115900.28;5038684;28;20520;-80
2023/05/16 02:42:08;;;;;;;6.85;5.70;;;;;;;-142.57;100.00;115900.28;5038237;28;20434;-81
2023/05/16 02:44:34;;;;;;;6.35;5.75;;;;;;;-142.57;100.00;115900.28;5043346;28;20037;-80
2023/05/16 02:47:00;;;;;;;12.20;5.90;;;;;;;-142.57;100.00;115900.28;5041709;28;20097;-84
2023/05/16 02:49:25;;;;;;;15.30;6.45;;;;;;;-142.57;100.00;115900.28;5034885;28;20479;-90
2023/05/16 02:51:51;;;;;;;13.02;6.25;;;;;;;-142.57;100.00;115900.28;5037113;28;20068;-82
2023/05/16 02:54:17;;;;;;;7.93;6.65;;;;;;;-142.57;100.00;115900.28;5036149;28;20045;-81
2023/05/16 02:56:43;;;;;;;8.57;6.15;;;;;;;-142.57;100.00;115900.28;5019609;28;20479;-84
2023/05/16 02:59:10;;;;;;;6.95;5.72;;;;;;;-142.57;100.00;115900.28;5037599;28;20033;-86
2023/05/16 03:01:36;;;;;;;10.20;6.72;;;;;;;-142.57;100.00;115900.28;5036838;28;20475;-87
2023/05/16 03:04:04;;;;;;;7.93;6.88;;;;;;;-142.57;100.00;115900.28;5035417;28;20095;-86
2023/05/16 03:06:30;;;;;;;8.13;6.90;;;;;;;-142.57;100.00;115900.28;5035674;28;20523;-81
2023/05/16 03:08:58;;;;;;;8.20;7.05;;;;;;;-142.57;100.00;115900.28;5038080;28;20382;-80
2023/05/16 03:11:27;;;;;;;9.25;7.72;;;;;;;-142.57;100.00;115900.28;5036658;28;20099;-86
2023/05/16 03:13:53;;;;;;;10.68;7.85;;;;;;;-142.57;100.00;115900.28;5035396;28;20068;-82
2023/05/16 03:16:19;;;;;;;9.20;7.65;;;;;;;-142.57;100.00;115900.28;5034391;28;20034;-82
2023/05/16 03:18:44;;;;;;;11.35;7.90;;;;;;;-142.57;100.00;115900.28;5034050;28;20037;-86
2023/05/16 03:21:10;;;;;;;15.63;9.70;;;;;;;-142.57;100.00;115900.28;5035350;28;20033;-81
2023/05/16 03:23:35;;;;;;;10.43;8.73;;;;;;;-142.57;100.00;115900.28;5034109;28;20395;-82
2023/05/16 03:26:04;;;;;;;12.63;9.13;;;;;;;-142.57;100.00;115900.28;5033907;28;20037;-84
2023/05/16 03:28:29;;;;;;;14.10;10.55;;;;;;;-142.57;100.00;115900.28;5033715;28;20418;-81
2023/05/16 03:30:55;;;;;;;14.65;10.02;;;;;;;-142.57;100.00;115900.28;5031882;28;20029;-81
2023/05/16 03:33:20;;;;;;;11.25;9.70;;;;;;;-142.57;100.00;115900.28;5033771;28;20038;-81
2023/05/16 03:35:46;;;;;;;13.48;9.60;;;;;;;-142.57;100.00;115900.28;5041546;28;20017;-88
2023/05/16 03:38:12;;;;;;;12.73;9.70;;;;;;;-142.57;100.00;115900.28;5034012;28;20383;-81
2023/05/16 03:40:39;;;;;;;16.77;10.40;;;;;;;-142.57;100.00;115900.28;5033298;28;20033;-80
2023/05/16 03:43:04;;;;;;;13.93;10.95;;;;;;;-142.57;100.00;115900.28;5039231;28;20041;-91
2023/05/16 03:45:30;;;;;;;12.63;9.77;;;;;;;-142.57;100.00;115900.28;5040097;28;20041;-89
2023/05/16 03:47:56;;;;;;;16.23;10.75;;;;;;;-142.57;100.00;115900.28;5034208;28;20120;-83
2023/05/16 03:50:21;;;;;;;17.73;11.25;;;;;;;-142.57;100.00;115900.28;5035957;28;20044;-83
2023/05/16 03:52:47;;;;;;;17.13;11.27;;;;;;;-142.57;100.00;115900.28;5036048;28;20029;-85
2023/05/16 03:55:15;;;;;;;15.93;11.05;;;;;;;-142.57;100.00;115900.28;5036228;28;20045;-83
2023/05/16 03:57:46;;;;;;;16.38;11.10;;;;;;;-142.57;100.00;115900.28;5035984;28;20061;-80
2023/05/16 04:00:12;;;;;;;17.75;11.50;;;;;;;-142.57;100.00;115900.28;5034878;28;20046;-82
2023/05/16 04:02:41;;;;;;;14.77;11.57;;;;;;;-142.57;100.00;115900.28;5034437;28;20053;-84
2023/05/16 04:05:08;;;;;;;18.13;11.75;;;;;;;-142.57;100.00;115900.28;5035426;28;20117;-82
2023/05/16 04:07:35;;;;;;;16.45;12.35;;;;;;;-142.57;100.00;115900.28;5034458;28;20033;-81
2023/05/16 04:10:02;;;;;;;18.48;11.30;;;;;;;-142.57;100.00;115900.28;5033430;28;20041;-84
2023/05/16 04:12:28;;;;;;;19.38;13.15;;;;;;;-142.57;100.00;115900.28;5038082;28;20454;-84
2023/05/16 04:14:53;;;;;;;15.45;11.70;;;;;;;-142.57;100.00;115900.28;5042055;28;20225;-81
2023/05/16 04:17:18;;;;;;;14.43;12.07;;;;;;;-142.57;100.00;115900.28;5038429;28;20025;-90
2023/05/16 04:19:44;;;;;;;18.25;11.18;;;;;;;-142.57;100.00;115900.28;5035518;28;20041;-90
2023/05/16 04:22:09;;;;;;;16.77;11.30;;;;;;;-142.57;100.00;115900.28;5035239;28;20068;-80
2023/05/16 04:24:35;;;;;;;14.63;11.00;;;;;;;-142.57;100.00;115900.28;5034276;28;20052;-80
2023/05/16 04:27:01;;;;;;;24.02;12.23;;;;;;;-142.57;100.00;115900.28;5036635;28;20092;-85
2023/05/16 04:29:31;;;;;;;16.17;11.73;;;;;;;-142.57;100.00;115900.28;5033694;28;20071;-85
2023/05/16 04:31:56;;;;;;;20.13;11.18;;;;;;;-142.57;100.00;115900.28;5034868;28;20041;-84
2023/05/16 04:34:26;;;;;;;15.95;10.40;;;;;;;-142.57;100.00;115900.28;5034516;28;20463;-82
2023/05/16 04:36:55;;;;;;;10.15;8.30;;;;;;;-142.57;100.00;115900.28;5035924;28;20052;-83
2023/05/16 04:39:21;;;;;;;12.40;7.85;;;;;;;-142.57;100.00;115900.28;5038252;28;20065;-84
2023/05/16 04:41:47;;;;;;;12.27;8.90;;;;;;;-142.57;100.00;115900.28;5039009;28;20041;-86
2023/05/16 04:44:12;;;;;;;10.52;8.32;;;;;;;-142.57;100.00;115900.28;5037671;28;20064;-86
2023/05/16 04:46:40;;;;;;;10.23;8.32;;;;;;;-142.57;100.00;115900.28;5036626;28;20481;-81
2023/05/16 04:49:06;;;;;;;13.48;8.02;;;;;;;-142.57;100.00;115900.28;5034289;28;20046;-82
2023/05/16 04:51:32;;;;;;;9.13;6.30;;;;;;;-142.57;100.00;115900.28;5035530;28;20056;-82
2023/05/16 04:53:58;;;;;;;10.00;6.05;;;;;;;-142.57;100.00;115900.28;5017932;28;20466;-82
2023/05/16 04:56:25;;;;;;;11.73;5.50;;;;;;;-142.57;100.00;115900.28;5036422;28;20041;-82
2023/05/16 04:58:51;;;;;;;8.15;5.85;;;;;;;-142.57;100.00;115900.28;5038449;28;20041;-85
2023/05/16 05:01:19;;;;;;;11.27;6.07;;;;;;;-142.57;100.00;115900.28;5038643;28;20037;-85
2023/05/16 05:03:45;;;;;;;8.48;5.93;;;;;;;-142.57;100.00;115900.28;5037612;28;20034;-85
2023/05/16 05:06:13;;;;;;;13.95;6.32;;;;;;;-142.57;100.00;115900.28;5037364;28;20041;-84
2023/05/16 05:08:40;;;;;;;9.65;5.15;;;;;;;-142.57;100.00;115900.28;5053237;28;20044;-83
2023/05/16 05:11:06;;;;;;;13.63;5.13;;;;;;;-142.57;100.00;115900.28;5046286;28;20029;-85
2023/05/16 05:13:31;;;;;;;7.95;4.43;;;;;;;-142.57;100.00;115900.28;5042384;28;20041;-87
2023/05/16 05:15:57;;;;;;;6.72;3.70;;;;;;;-142.57;100.00;115900.28;5042327;28;20043;-88
2023/05/16 05:18:22;;;;;;;10.18;3.90;;;;;;;-142.57;100.00;115900.28;5041184;28;20048;-85
2023/05/16 05:20:49;;;;;;;10.15;3.58;;;;;;;-142.57;100.00;115900.28;5037432;28;20029;-88
2023/05/16 05:23:14;;;;;;;7.30;3.33;;;;;;;-142.57;100.00;115900.28;5040512;28;20029;-85
2023/05/16 05:25:40;;;;;;;4.90;2.20;;;;;;;-142.57;100.00;115900.28;5039390;28;20518;-87
2023/05/16 05:28:05;;;;;;;11.45;2.70;;;;;;;-142.57;100.00;115900.28;5037198;28;20056;-90
2023/05/16 05:30:31;;;;;;;2.97;1.67;;;;;;;-142.57;100.00;115900.28;5040916;28;20480;-87
2023/05/16 05:32:57;;;;;;;4.00;2.13;;;;;;;-142.57;100.00;115900.28;5038687;28;20044;-86
2023/05/16 05:35:22;;;;;;;7.00;1.40;;;;;;;-142.57;100.00;115900.28;5038497;28;20069;-90
2023/05/16 05:37:48;;;;;;;7.20;1.50;;;;;;;-142.57;100.00;115900.28;5039744;28;20057;-87
2023/05/16 05:40:15;;;;;;;4.90;1.63;;;;;;;-142.57;100.00;115900.28;5041247;28;20069;-89
2023/05/16 05:42:40;;;;;;;4.63;1.35;;;;;;;-142.57;100.00;115900.28;5037445;28;20030;-86
2023/05/16 05:45:06;;;;;;;4.75;1.58;;;;;;;-142.57;100.00;115900.28;5029452;28;20092;-83
2023/05/16 05:47:32;;;;;;;4.00;1.65;;;;;;;-142.57;100.00;115900.28;5037623;28;20029;-84
2023/05/16 05:49:58;;;;;;;3.83;1.20;;;;;;;-142.57;100.00;115900.28;5037725;28;20471;-83
2023/05/16 05:52:24;;;;;;;3.05;1.50;;;;;;;-142.57;100.00;115900.28;5038287;28;20125;-85
2023/05/16 05:54:50;;;;;;;5.18;1.63;;;;;;;-142.57;100.00;115900.28;5038014;28;20414;-86
2023/05/16 05:57:15;;;;;;;8.05;1.75;;;;;;;-142.57;100.00;115900.28;5036619;28;20025;-84
2023/05/16 05:59:41;;;;;;;3.90;1.52;;;;;;;-142.57;100.00;115900.28;5036075;28;20033;-83
2023/05/16 06:02:07;;;;;;;3.67;1.50;;;;;;;-142.57;100.00;115900.28;5036138;28;20108;-86
2023/05/16 06:04:35;;;;;;;5.93;1.73;;;;;;;-142.57;100.00;115900.28;5036289;28;20045;-84
2023/05/16 06:07:01;;;;;;;5.57;1.60;;;;;;;-142.57;100.00;115900.28;5034834;28;20116;-83
2023/05/16 06:09:26;;;;;;;3.53;1.70;;;;;;;-142.57;100.00;115900.28;5034110;28;20029;-84
2023/05/16 06:11:52;;;;;;;6.90;1.88;;;;;;;-142.57;100.00;115900.28;5036609;28;20036;-85
2023/05/16 06:14:19;;;;;;;5.43;1.67;;;;;;;-142.57;100.00;115900.28;5036592;28;20039;-86
2023/05/16 06:16:44;;;;;;;8.00;1.75;;;;;;;-142.57;100.00;115900.28;5035927;28;20046;-83
2023/05/16 06:19:14;;;;;;;6.07;1.77;;;;;;;-142.57;100.00;115900.28;5037646;28;20038;-82
2023/05/16 06:21:40;;;;;;;6.88;2.05;;;;;;;-142.57;100.00;115900.28;5036484;28;20033;-83
2023/05/16 06:24:07;;;;;;;3.28;1.58;;;;;;;-142.57;100.00;115900.28;5041596;28;20086;-81
2023/05/16 06:26:35;;;;;;;5.35;1.63;;;;;;;-142.57;100.00;115900.28;5035818;28;20041;-83
2023/05/16 06:29:01;;;;;;;6.40;1.70;;;;;;;-142.57;100.00;115900.28;5038619;28;20041;-81
2023/05/16 06:31:26;;;;;;;6.32;1.85;;;;;;;-142.57;100.00;115900.28;5040487;28;20045;-88
2023/05/16 06:33:52;;;;;;;7.90;1.75;;;;;;;-142.57;100.00;115900.28;5045438;28;20494;-86
2023/05/16 06:36:17;;;;;;;5.53;1.60;;;;;;;-142.57;100.00;115900.28;5037797;28;20034;-85
2023/05/16 06:38:43;;;;;;;4.95;1.88;;;;;;;-142.57;100.00;115900.28;5039459;28;20022;-84
2023/05/16 06:41:08;;;;;;;5.63;1.90;;;;;;;-142.57;100.00;115900.28;5041133;28;20075;-85
2023/05/16 06:43:34;;;;;;;4.68;1.90;;;;;;;-142.57;100.00;115900.28;5037904;28;20075;-83
2023/05/16 06:46:03;;;;;;;7.88;2.42;;;;;;;-142.57;100.00;115900.28;5036455;28;20037;-86
2023/05/16 06:48:28;;;;;;;5.93;2.20;;;;;;;-142.57;100.00;115900.28;5041588;28;20059;-83
2023/05/16 06:50:59;;;;;;;6.53;2.30;;;;;;;-142.57;100.00;115900.28;5040807;28;20025;-82
2023/05/16 06:53:28;;;;;;;2.40;1.40;;;;;;;-142.57;100.00;115900.28;5035526;28;20501;-82
2023/05/16 06:55:54;;;;;;;8.27;1.88;;;;;;;-142.57;100.00;115900.28;5038965;28;20032;-85
2023/05/16 06:58:21;;;;;;;6.50;1.85;;;;;;;-142.57;100.00;115900.28;5037122;28;20461;-82
2023/05/16 07:00:48;;;;;;;5.25;1.73;;;;;;;-142.57;100.00;115900.28;5038074;28;20033;-84
2023/05/16 07:03:14;;;;;;;3.58;1.70;;;;;;;-142.57;100.00;115900.28;5040632;28;20041;-83
2023/05/16 07:05:40;;;;;;;4.53;1.75;;;;;;;-142.57;100.00;115900.28;5038907;28;20088;-83
2023/05/16 07:08:09;;;;;;;5.03;1.80;;;;;;;-142.57;100.00;115900.28;5039662;28;20041;-86
2023/05/16 07:10:35;;;;;;;3.58;2.00;;;;;;;-142.57;100.00;115900.28;5038588;28;20057;-84
2023/05/16 07:13:01;;;;;;;3.88;1.55;;;;;;;-142.57;100.00;115900.28;5038188;28;20021;-86
2023/05/16 07:15:27;;;;;;;4.85;1.55;;;;;;;-142.57;100.00;115900.28;5037048;28;20041;-85
2023/05/16 07:17:54;;;;;;;5.32;2.03;;;;;;;-142.57;100.00;115900.28;5037013;28;20025;-86
2023/05/16 07:20:19;;;;;;;4.65;1.98;;;;;;;-142.57;100.00;115900.28;5039539;28;20040;-84
2023/05/16 07:22:45;;;;;;;2.67;1.90;;;;;;;-142.57;100.00;115900.28;5047036;28;20036;-83
2023/05/16 07:25:11;;;;;;;6.35;2.28;;;;;;;-142.57;100.00;115900.28;5048771;28;20025;-85
2023/05/16 07:27:43;;;;;;;3.90;1.92;;;;;;;-142.57;100.00;115900.28;5060289;22;20379;-84
2023/05/16 07:30:13;;;;;;;3.72;1.50;;;;;;;-142.57;100.00;115900.28;5052814;28;20082;-83
2023/05/16 07:32:39;;;;;;;2.67;2.00;;;;;;;-142.57;100.00;115900.28;5052165;28;20038;-84
2023/05/16 07:35:05;;;;;;;2.78;1.73;;;;;;;-142.57;100.00;115900.28;5053802;28;20041;-82
2023/05/16 07:37:30;;;;;;;4.57;1.60;;;;;;;-142.57;100.00;115900.28;5048038;28;20064;-83
2023/05/16 07:39:56;;;;;;;4.18;1.73;;;;;;;-142.57;100.00;115900.28;5054102;28;20043;-82
2023/05/16 07:42:21;;;;;;;5.68;2.00;;;;;;;-142.57;100.00;115900.28;5045166;28;20049;-85
2023/05/16 07:44:47;;;;;;;8.43;2.03;;;;;;;-142.57;100.00;115900.28;5036185;28;20045;-84
2023/05/16 07:47:12;;;;;;;9.65;2.35;;;;;;;-142.57;100.00;115900.28;5052876;28;20044;-84
2023/05/16 07:49:41;;;;;;;4.25;1.90;;;;;;;-142.57;100.00;115900.28;5051643;28;20032;-86
2023/05/16 07:52:07;;;;;;;5.20;2.20;;;;;;;-142.57;100.00;115900.28;5042406;28;20034;-86
2023/05/16 07:54:38;;;;;;;4.97;1.80;;;;;;;-142.57;100.00;115900.28;5036110;28;20102;-82
2023/05/16 07:57:08;;;;;;;3.40;1.80;;;;;;;-142.57;100.00;115900.28;5044873;28;20064;-84
2023/05/16 07:59:34;;;;;;;3.70;1.80;;;;;;;-142.57;100.00;115900.28;5042636;28;20029;-83
2023/05/16 08:02:00;;;;;;;5.50;1.73;;;;;;;-142.57;100.00;115900.28;5050768;28;20037;-84
2023/05/16 08:04:29;;;;;;;5.65;2.35;;;;;;;-142.57;100.00;115900.28;5032024;28;20434;-84
2023/05/16 08:06:54;;;;;;;9.98;2.20;;;;;;;-142.57;100.00;115900.28;5034527;28;20494;-84
2023/05/16 08:09:25;;;;;;;25.77;2.45;;;;;;;-142.57;100.00;115900.28;5032391;28;20033;-84
2023/05/16 08:11:51;;;;;;;6.13;2.35;;;;;;;-142.57;100.00;115900.28;5048063;28;20053;-83
2023/05/16 08:14:17;;;;;;;8.30;2.00;;;;;;;-142.57;100.00;115900.28;5036698;28;20026;-83
2023/05/16 08:17:02;;;;;;;3.25;1.85;;;;;;;-142.57;100.00;115900.28;5039888;28;20030;-81
2023/05/16 08:19:29;;;;;;;5.13;2.00;;;;;;;-142.57;100.00;115900.28;5042098;28;20033;-84
2023/05/16 08:22:00;;;;;;;5.57;3.10;;;;;;;-142.57;100.00;115900.28;5055657;28;20080;-85
2023/05/16 08:24:26;;;;;;;8.20;2.63;;;;;;;-142.57;100.00;115900.28;5083539;22;20030;-88
2023/05/16 08:27:13;;;;;;;3.78;2.38;;;;;;;-142.57;100.00;115900.28;5052015;28;20097;-85
2023/05/16 08:29:41;;;;;;;2.35;1.77;;;;;;;-142.57;100.00;115900.28;5059457;28;20026;-86
2023/05/16 08:32:09;;;;;;;1.80;1.52;;;;;;;-142.57;100.00;115900.28;5061062;28;20032;-84
2023/05/16 08:34:36;;;;;;;3.70;1.42;;;;;;;-142.57;100.00;115900.28;5061156;28;20013;-85
2023/05/16 08:37:01;;;;;;;4.75;1.33;;;;;;;-142.57;100.00;115900.28;5061118;28;20059;-87
2023/05/16 08:39:29;;;;;;;3.00;1.90;;;;;;;-142.57;100.00;115900.28;5057701;28;20013;-85
2023/05/16 08:41:56;;;;;;;3.40;1.83;;;;;;;-142.57;100.00;115900.28;5045633;28;20393;-85
2023/05/16 08:44:22;;;;;;;3.58;2.17;;;;;;;-142.57;100.00;115900.28;5071061;28;20041;-85
2023/05/16 08:46:51;;;;;;;2.80;1.92;;;;;;;-142.57;100.00;115900.28;5068238;28;20032;-86
2023/05/16 08:49:18;;;;;;;4.80;2.58;;;;;;;-142.57;100.00;115900.28;5052193;28;20064;-88
2023/05/16 08:51:46;;;;;;;6.35;2.40;;;;;;;-142.57;100.00;115900.28;5040867;28;20100;-86
2023/05/16 08:54:15;;;;;;;3.70;2.40;;;;;;;-142.57;100.00;115900.28;5023817;28;20045;-88
2023/05/16 08:59:55;;;;;;;8.02;2.47;;;;;;;-142.57;100.00;115900.28;5035834;28;20065;-86
2023/05/16 09:02:21;;;;;;;4.70;2.10;;;;;;;-142.57;100.00;115900.28;5035687;28;20036;-86
2023/05/16 09:04:50;;;;;;;4.28;2.00;;;;;;;-142.57;100.00;115900.28;5021078;28;20069;-88
2023/05/16 09:07:16;;;;;;;2.70;2.03;;;;;;;-142.57;100.00;115900.28;5030596;28;20120;-85
2023/05/16 09:09:45;;;;;;;2.55;2.15;;;;;;;-142.57;100.00;115900.28;5020374;28;20064;-87
2023/05/16 09:12:11;;;;;;;3.65;2.45;;;;;;;-142.57;100.00;115900.28;5023196;28;20026;-85
2023/05/16 09:14:36;;;;;;;4.90;2.00;;;;;;;-142.57;100.00;115900.28;5031131;28;20056;-88
2023/05/16 09:17:07;;;;;;;3.70;2.28;;;;;;;-142.57;100.00;115900.28;5042907;28;20042;-86
2023/05/16 09:19:40;;;;;;;6.32;1.83;;;;;;;-142.57;100.00;115900.28;5045638;28;20097;-86
2023/05/16 09:22:24;;;;;;;4.63;1.60;;;;;;;-142.57;100.00;115900.28;5032618;28;20041;-87
2023/05/16 09:24:49;;;;;;;4.78;1.80;;;;;;;-142.57;100.00;115900.28;5020816;28;20052;-86
2023/05/16 09:27:15;;;;;;;4.15;1.80;;;;;;;-142.57;100.00;115900.28;5024213;28;20030;-88
2023/05/16 09:29:43;;;;;;;4.38;2.53;;;;;;;-142.57;100.00;115900.28;5043545;28;20045;-86
2023/05/16 09:32:13;;;;;;;3.75;1.90;;;;;;;-142.57;100.00;115900.28;5035368;28;20044;-87
2023/05/16 09:35:02;;;;;;;2.30;1.45;;;;;;;-142.57;100.00;115900.28;5038372;28;20030;-89
2023/05/16 09:37:29;;;;;;;7.45;2.08;;;;;;;-142.57;100.00;115900.28;5025697;28;20030;-83
2023/05/16 09:39:55;;;;;;;6.40;2.40;;;;;;;-142.57;100.00;115900.28;5025855;28;20083;-83
2023/05/16 09:42:27;;;;;;;7.60;1.73;;;;;;;-142.57;100.00;115900.28;5026625;28;20037;-89
2023/05/16 09:44:55;;;;;;;3.73;1.60;;;;;;;-142.57;100.00;115900.28;5026405;28;20217;-85
2023/05/16 09:47:22;;;;;;;5.65;2.22;;;;;;;-142.57;100.00;115900.28;5023000;28;20030;-86
2023/05/16 09:49:52;;;;;;;6.65;1.95;;;;;;;-142.57;100.00;115900.28;5025155;28;20025;-86
2023/05/16 09:52:17;;;;;;;7.18;2.33;;;;;;;-142.57;100.00;115900.28;5019407;28;20046;-86
2023/05/16 09:54:47;;;;;;;5.25;2.20;;;;;;;-142.57;100.00;115900.28;5015942;28;20025;-87
2023/05/16 09:57:20;;;;;;;3.45;2.00;;;;;;;-142.57;100.00;115900.28;5013239;28;20087;-86
2023/05/16 09:59:46;;;;;;;6.72;2.30;;;;;;;-142.57;100.00;115900.28;5013884;28;20504;-83
2023/05/16 10:02:13;;;;;;;2.00;1.75;;;;;;;-142.57;100.00;115900.28;5016793;28;20037;-87
2023/05/16 10:04:38;;;;;;;4.25;1.95;;;;;;;-142.57;100.00;115900.28;5030734;28;20033;-84
2023/05/16 10:07:05;;;;;;;4.85;2.20;;;;;;;-142.57;100.00;115900.28;5031114;28;20049;-85
2023/05/16 10:09:35;;;;;;;8.05;2.25;;;;;;;-142.57;100.00;115900.28;5033440;28;20124;-84
2023/05/16 10:12:03;;;;;;;7.70;2.05;;;;;;;-142.57;100.00;115900.28;5031161;28;20034;-85
2023/05/16 10:14:32;;;;;;;8.27;2.00;;;;;;;-142.57;100.00;115900.28;5025784;28;20509;-85
2023/05/16 10:16:58;;;;;;;4.00;1.90;;;;;;;-142.57;100.00;115900.28;5021858;28;20081;-84
2023/05/16 10:19:49;;;;;;;5.20;2.05;;;;;;;-142.57;100.00;115900.28;5038215;28;20069;-83
2023/05/16 10:22:16;;;;;;;2.85;1.85;;;;;;;-142.57;100.00;115900.28;5035262;28;20053;-81
2023/05/16 10:24:53;;;;;;;5.28;2.30;;;;;;;-142.57;100.00;115900.28;5044167;28;20061;-86
2023/05/16 10:27:28;;;;;;;5.40;2.40;;;;;;;-142.57;100.00;115900.28;5039357;28;20037;-86
2023/05/16 10:29:54;;;;;;;6.72;2.78;;;;;;;-142.57;100.00;115900.28;5030804;28;20037;-85
2023/05/16 10:32:22;;;;;;;4.20;2.53;;;;;;;-142.57;100.00;115900.28;5015178;28;20509;-89
2023/05/16 10:34:48;;;;;;;5.30;2.85;;;;;;;-142.57;100.00;115900.28;5018615;28;20120;-85
2023/05/16 10:37:13;;;;;;;6.07;3.05;;;;;;;-142.57;100.00;115900.28;5029233;28;20908;-87
2023/05/16 10:39:39;;;;;;;3.88;2.38;;;;;;;-142.57;100.00;115900.28;5015250;28;20037;-86
2023/05/16 10:42:08;;;;;;;6.07;2.65;;;;;;;-142.57;100.00;115900.28;5017843;28;20034;-85
2023/05/16 10:44:38;;;;;;;3.50;2.60;;;;;;;-142.57;100.00;115900.28;5011961;28;20030;-85
2023/05/16 10:47:04;;;;;;;5.10;2.95;;;;;;;-142.57;100.00;115900.28;5005741;28;20080;-85
2023/05/16 10:49:30;;;;;;;5.70;3.15;;;;;;;-142.57;100.00;115900.28;5017755;28;20057;-85
2023/05/16 10:52:10;;;;;;;6.38;2.67;;;;;;;-142.57;100.00;115900.28;5025572;28;20467;-86
2023/05/16 10:54:39;;;;;;;6.43;3.17;;;;;;;-142.57;100.00;115900.28;5034721;28;20496;-85
2023/05/16 10:57:10;;;;;;;5.07;3.10;;;;;;;-142.57;100.00;115900.28;5030858;28;20487;-83
2023/05/16 10:59:50;;;;;;;7.97;3.60;;;;;;;-142.57;100.00;115900.28;5014903;28;20046;-87
2023/05/16 11:02:31;;;;;;;7.25;3.58;;;;;;;-142.57;100.00;115900.28;5016188;28;20041;-84
2023/05/16 11:04:58;;;;;;;7.78;3.17;;;;;;;-142.57;100.00;115900.28;5021339;28;20410;-87